createdAt,value
2022-11-05T00:00:21.834Z,1.63
2022-11-05T00:03:24.044Z,1.70
2022-11-05T00:06:11.991Z,1.40
2022-11-05T00:08:58.193Z,2.03
2022-11-05T00:11:44.671Z,1.80
2022-11-05T00:14:29.892Z,1.67
2022-11-05T00:16:56.928Z,1.77
2022-11-05T00:19:23.942Z,1.90
2022-11-05T00:22:09.150Z,1.80
2022-11-05T00:24:54.453Z,1.60
2022-11-05T00:27:21.474Z,1.58
2022-11-05T00:29:48.505Z,1.50
2022-11-05T00:32:15.091Z,1.60
2022-11-05T00:34:41.682Z,1.58
2022-11-05T00:37:08.258Z,1.50
2022-11-05T00:39:34.783Z,1.60
2022-11-05T00:42:19.782Z,1.55
2022-11-05T00:45:02.057Z,1.55
2022-11-05T00:47:48.824Z,1.45
2022-11-05T00:50:15.565Z,1.38
2022-11-05T00:52:57.738Z,1.20
2022-11-05T00:55:39.400Z,1.33
2022-11-05T00:58:27.371Z,1.30
2022-11-05T01:00:56.513Z,1.20
2022-11-05T01:03:26.923Z,1.40
2022-11-05T01:05:59.073Z,1.45
2022-11-05T01:08:27.633Z,1.50
2022-11-05T01:10:56.825Z,1.25
2022-11-05T01:13:26.938Z,1.30
2022-11-05T01:15:54.344Z,1.30
2022-11-05T01:18:22.702Z,1.25
2022-11-05T01:20:50.173Z,1.02
2022-11-05T01:23:17.749Z,1.30
2022-11-05T01:25:45.026Z,1.10
2022-11-05T01:28:12.232Z,1.13
2022-11-05T01:30:39.737Z,1.10
2022-11-05T01:33:07.005Z,1.17
2022-11-05T01:35:33.591Z,1.23
2022-11-05T01:38:00.906Z,1.13
2022-11-05T01:40:27.451Z,1.02
2022-11-05T01:42:54.211Z,1.10
2022-11-05T01:45:25.748Z,0.80
2022-11-05T01:48:27.949Z,1.00
2022-11-05T01:51:17.224Z,1.17
2022-11-05T01:54:04.565Z,1.00
2022-11-05T01:56:41.345Z,0.82
2022-11-05T01:59:22.514Z,1.20
2022-11-05T02:01:50.236Z,1.08
2022-11-05T02:04:27.866Z,1.13
2022-11-05T02:06:55.244Z,0.98
2022-11-05T02:09:28.295Z,0.80
2022-11-05T02:11:55.391Z,1.13
2022-11-05T02:14:22.128Z,0.90
2022-11-05T02:17:17.059Z,1.05
2022-11-05T02:20:23.721Z,0.93
2022-11-05T02:23:12.561Z,0.90
2022-11-05T02:26:17.437Z,0.77
2022-11-05T02:28:47.368Z,1.05
2022-11-05T02:31:56.062Z,0.88
2022-11-05T02:34:37.976Z,0.93
2022-11-05T02:37:07.454Z,0.82
2022-11-05T02:39:52.736Z,0.85
2022-11-05T02:42:31.680Z,1.05
2022-11-05T02:45:27.230Z,0.90
2022-11-05T02:48:02.774Z,0.95
2022-11-05T02:50:35.240Z,0.90
2022-11-05T02:53:20.645Z,0.80
2022-11-05T02:55:55.125Z,0.67
2022-11-05T02:58:25.688Z,0.70
2022-11-05T03:00:57.003Z,0.82
2022-11-05T03:03:35.632Z,0.80
2022-11-05T03:06:31.809Z,0.90
2022-11-05T03:09:35.655Z,0.90
2022-11-05T03:12:21.456Z,0.70
2022-11-05T03:14:56.685Z,0.85
2022-11-05T03:17:45.811Z,0.82
2022-11-05T03:20:31.070Z,0.63
2022-11-05T03:23:15.560Z,0.90
2022-11-05T03:25:50.130Z,0.88
2022-11-05T03:28:20.809Z,0.70
2022-11-05T03:30:51.000Z,0.82
2022-11-05T03:33:22.809Z,0.70
2022-11-05T03:35:56.391Z,0.90
2022-11-05T03:38:35.555Z,0.68
2022-11-05T03:41:07.542Z,0.82
2022-11-05T03:43:38.510Z,0.57
2022-11-05T03:46:19.090Z,0.68
2022-11-05T03:48:49.753Z,0.70
2022-11-05T03:51:32.163Z,0.73
2022-11-05T03:54:02.088Z,0.60
2022-11-05T03:56:51.986Z,0.63
2022-11-05T03:59:20.582Z,0.60
2022-11-05T04:01:48.631Z,0.75
2022-11-05T04:04:15.895Z,0.77
2022-11-05T04:07:00.621Z,0.85
2022-11-05T04:09:45.918Z,0.80
2022-11-05T04:12:31.323Z,0.70
2022-11-05T04:14:58.381Z,0.80
2022-11-05T04:17:24.924Z,0.70
2022-11-05T04:20:10.270Z,0.80
2022-11-05T04:22:55.314Z,0.60
2022-11-05T04:25:23.391Z,0.70
2022-11-05T04:27:50.675Z,0.70
2022-11-05T04:30:19.312Z,0.60
2022-11-05T04:33:04.261Z,0.57
2022-11-05T04:35:36.796Z,0.52
2022-11-05T04:38:18.151Z,0.60
2022-11-05T04:40:46.481Z,0.57
2022-11-05T04:43:18.812Z,0.50
2022-11-05T04:45:45.919Z,0.80
2022-11-05T04:48:13.697Z,0.70
2022-11-05T04:50:40.786Z,0.60
2022-11-05T04:53:07.433Z,0.60
2022-11-05T04:55:34.564Z,0.80
2022-11-05T04:58:01.108Z,0.50
2022-11-05T05:00:28.289Z,0.52
2022-11-05T05:02:55.388Z,0.50
2022-11-05T05:05:23.160Z,0.55
2022-11-05T05:07:50.460Z,0.60
2022-11-05T05:10:17.153Z,0.50
2022-11-05T05:12:44.174Z,0.80
2022-11-05T05:15:11.246Z,0.60
2022-11-05T05:17:37.751Z,0.40
2022-11-05T05:20:22.843Z,0.60
2022-11-05T05:22:55.805Z,0.70
2022-11-05T05:25:23.431Z,0.70
2022-11-05T05:27:50.133Z,0.43
2022-11-05T05:30:16.919Z,0.50
2022-11-05T05:32:44.158Z,0.57
2022-11-05T05:35:10.713Z,0.55
2022-11-05T05:37:37.837Z,0.40
2022-11-05T05:40:04.843Z,0.50
2022-11-05T05:42:31.979Z,0.55
2022-11-05T05:44:59.057Z,0.50
2022-11-05T05:47:25.673Z,0.75
2022-11-05T05:49:52.645Z,0.60
2022-11-05T05:52:19.246Z,0.63
2022-11-05T05:54:46.044Z,0.60
2022-11-05T05:57:13.049Z,0.40
2022-11-05T05:59:40.109Z,0.50
2022-11-05T06:02:07.287Z,0.52
2022-11-05T06:04:35.028Z,0.60
2022-11-05T06:07:01.630Z,0.50
2022-11-05T06:09:28.187Z,0.60
2022-11-05T06:11:54.733Z,0.73
2022-11-05T06:14:21.515Z,0.80
2022-11-05T06:16:48.649Z,0.60
2022-11-05T06:19:15.338Z,0.60
2022-11-05T06:21:42.446Z,0.68
2022-11-05T06:24:09.102Z,0.90
2022-11-05T06:26:36.441Z,0.70
2022-11-05T06:29:03.056Z,0.75
2022-11-05T06:31:29.589Z,0.60
2022-11-05T06:33:56.143Z,0.70
2022-11-05T06:36:23.233Z,0.90
2022-11-05T06:38:50.423Z,0.88
2022-11-05T06:41:17.557Z,0.60
2022-11-05T06:43:44.694Z,0.70
2022-11-05T06:46:12.163Z,0.77
2022-11-05T06:48:39.345Z,0.80
2022-11-05T06:51:07.692Z,0.60
2022-11-05T06:53:35.289Z,0.75
2022-11-05T06:56:06.830Z,0.70
2022-11-05T06:58:33.611Z,0.75
2022-11-05T07:01:05.317Z,0.80
2022-11-05T07:03:31.959Z,0.80
2022-11-05T07:06:00.756Z,0.80
2022-11-05T07:08:31.869Z,0.70
2022-11-05T07:10:59.318Z,0.70
2022-11-05T07:13:26.429Z,0.82
2022-11-05T07:15:53.290Z,0.50
2022-11-05T07:18:19.961Z,0.65
2022-11-05T07:20:47.103Z,0.88
2022-11-05T07:23:15.319Z,0.60
2022-11-05T07:25:43.042Z,0.50
2022-11-05T07:28:11.565Z,0.70
2022-11-05T07:30:38.240Z,0.80
2022-11-05T07:33:05.024Z,0.77
2022-11-05T07:35:31.633Z,0.50
2022-11-05T07:37:58.693Z,0.60
2022-11-05T07:40:27.550Z,0.63
2022-11-05T07:42:56.943Z,0.85
2022-11-05T07:45:24.098Z,0.52
2022-11-05T07:47:53.846Z,0.60
2022-11-05T07:50:22.941Z,0.63
2022-11-05T07:52:50.180Z,0.70
2022-11-05T07:55:19.438Z,0.77
2022-11-05T07:57:50.870Z,0.60
2022-11-05T08:00:22.846Z,0.80
2022-11-05T08:03:07.592Z,1.00
2022-11-05T08:05:37.220Z,0.73
2022-11-05T08:08:04.675Z,0.60
2022-11-05T08:10:31.386Z,0.70
2022-11-05T08:12:58.047Z,0.63
2022-11-05T08:15:24.860Z,0.80
2022-11-05T08:17:59.168Z,0.90
2022-11-05T08:20:26.450Z,0.90
2022-11-05T08:22:54.127Z,0.90
2022-11-05T08:25:23.774Z,0.80
2022-11-05T08:28:12.031Z,1.08
2022-11-05T08:30:39.469Z,0.85
2022-11-05T08:33:09.303Z,0.77
2022-11-05T08:35:37.708Z,1.13
2022-11-05T08:38:07.232Z,0.90
2022-11-05T08:40:36.048Z,1.00
2022-11-05T08:43:06.208Z,0.98
2022-11-05T08:45:33.960Z,0.70
2022-11-05T08:48:14.846Z,0.90
2022-11-05T08:50:43.331Z,0.98
2022-11-05T08:53:18.946Z,0.80
2022-11-05T08:55:51.899Z,0.70
2022-11-05T08:58:26.899Z,0.77
2022-11-05T09:01:04.893Z,0.67
2022-11-05T09:03:39.246Z,0.57
2022-11-05T09:06:06.124Z,0.60
2022-11-05T09:08:32.746Z,0.70
2022-11-05T09:10:59.939Z,0.68
2022-11-05T09:13:28.097Z,0.98
2022-11-05T09:15:54.801Z,0.55
2022-11-05T09:18:21.591Z,0.50
2022-11-05T09:20:48.601Z,0.60
2022-11-05T09:23:21.394Z,0.52
2022-11-05T09:25:48.074Z,0.65
2022-11-05T09:28:28.303Z,0.65
2022-11-05T09:31:00.789Z,0.70
2022-11-05T09:33:28.086Z,0.70
2022-11-05T09:35:54.877Z,0.75
2022-11-05T09:38:21.700Z,0.52
2022-11-05T09:41:22.839Z,0.50
2022-11-05T09:43:53.936Z,0.60
2022-11-05T09:46:24.904Z,0.63
2022-11-05T09:48:56.518Z,0.63
2022-11-05T09:51:24.271Z,0.60
2022-11-05T09:53:53.534Z,0.43
2022-11-05T09:56:26.277Z,0.43
2022-11-05T09:59:04.920Z,0.52
2022-11-05T10:01:35.742Z,0.50
2022-11-05T10:04:11.344Z,0.47
2022-11-05T10:06:51.020Z,0.40
2022-11-05T10:09:30.229Z,0.50
2022-11-05T10:12:12.604Z,0.65
2022-11-05T10:14:50.228Z,0.73
2022-11-05T10:17:22.482Z,0.82
2022-11-05T10:19:58.011Z,0.55
2022-11-05T10:22:27.245Z,0.50
2022-11-05T10:24:55.246Z,0.70
2022-11-05T10:27:37.304Z,0.75
2022-11-05T10:30:19.213Z,0.43
2022-11-05T10:32:47.531Z,0.40
2022-11-05T10:35:22.569Z,0.60
2022-11-05T10:37:52.913Z,0.50
2022-11-05T10:40:42.594Z,0.65
2022-11-05T10:43:23.403Z,0.60
2022-11-05T10:46:03.224Z,0.60
2022-11-05T10:48:43.479Z,0.63
2022-11-05T10:51:13.231Z,0.50
2022-11-05T10:53:46.353Z,0.52
2022-11-05T10:56:33.192Z,0.50
2022-11-05T10:59:23.108Z,0.50
2022-11-05T11:02:28.707Z,0.80
2022-11-05T11:04:58.468Z,0.50
2022-11-05T11:07:27.258Z,0.50
2022-11-05T11:09:56.387Z,0.55
2022-11-05T11:12:40.718Z,0.60
2022-11-05T11:15:21.856Z,0.40
2022-11-05T11:17:48.974Z,0.65
2022-11-05T11:20:39.378Z,0.52
2022-11-05T11:23:22.691Z,0.57
2022-11-05T11:26:04.295Z,0.50
2022-11-05T11:29:14.106Z,0.70
2022-11-05T11:31:41.247Z,0.70
2022-11-05T11:34:27.484Z,0.60
2022-11-05T11:39:30.475Z,0.60
2022-11-05T11:42:22.245Z,0.55
2022-11-05T11:44:52.471Z,0.68
2022-11-05T11:47:21.305Z,0.77
2022-11-05T11:50:00.034Z,0.60
2022-11-05T11:52:28.609Z,0.50
2022-11-05T11:55:12.495Z,0.60
2022-11-05T11:58:06.580Z,0.70
2022-11-05T12:00:42.810Z,0.52
2022-11-05T12:03:35.741Z,0.93
2022-11-05T12:06:02.817Z,0.50
2022-11-05T12:08:45.796Z,0.50
2022-11-05T12:11:45.544Z,0.60
2022-11-05T12:14:53.447Z,0.55
2022-11-05T12:17:48.522Z,0.65
2022-11-05T12:20:21.494Z,0.50
2022-11-05T12:23:10.196Z,0.50
2022-11-05T12:25:49.505Z,0.50
2022-11-05T12:28:36.253Z,0.40
2022-11-05T12:31:33.089Z,0.65
2022-11-05T12:37:00.574Z,0.50
2022-11-05T12:39:48.639Z,0.50
2022-11-05T12:42:33.708Z,0.70
2022-11-05T12:45:21.480Z,0.50
2022-11-05T12:47:48.603Z,0.60
2022-11-05T12:50:33.800Z,0.75
2022-11-05T12:53:22.517Z,0.98
2022-11-05T12:55:52.114Z,0.77
2022-11-05T12:58:28.666Z,0.50
2022-11-05T13:01:01.816Z,0.60
2022-11-05T13:03:48.466Z,0.70
2022-11-05T13:06:25.727Z,0.52
2022-11-05T13:09:06.958Z,0.60
2022-11-05T13:11:42.079Z,0.60
2022-11-05T13:14:17.794Z,0.50
2022-11-05T13:19:27.008Z,0.65
2022-11-05T13:22:00.848Z,0.60
2022-11-05T13:24:34.544Z,0.50
2022-11-05T13:27:27.228Z,0.60
2022-11-05T13:30:01.946Z,0.55
2022-11-05T13:32:32.892Z,0.50
2022-11-05T13:35:05.908Z,0.68
2022-11-05T13:38:00.188Z,0.50
2022-11-05T13:40:47.687Z,0.63
2022-11-05T13:43:36.132Z,0.50
2022-11-05T13:46:23.797Z,0.57
2022-11-05T13:48:53.875Z,0.40
2022-11-05T13:51:39.329Z,0.50
2022-11-05T13:54:34.028Z,0.40
2022-11-05T13:57:10.865Z,0.40
2022-11-05T13:59:47.599Z,0.73
2022-11-05T14:02:22.990Z,0.50
2022-11-05T14:05:01.408Z,0.52
2022-11-05T14:07:45.805Z,0.57
2022-11-05T14:10:31.031Z,0.70
2022-11-05T14:13:01.651Z,0.43
2022-11-05T14:15:30.328Z,0.50
2022-11-05T14:18:23.332Z,0.75
2022-11-05T14:21:02.099Z,0.57
2022-11-05T14:23:41.077Z,0.50
2022-11-05T14:26:34.761Z,1.10
2022-11-05T14:29:04.252Z,0.45
2022-11-05T14:32:08.322Z,0.50
2022-11-05T14:34:43.537Z,0.55
2022-11-05T14:37:10.032Z,0.50
2022-11-05T14:39:37.251Z,0.60
2022-11-05T14:42:30.607Z,0.60
2022-11-05T14:45:08.856Z,0.52
2022-11-05T14:47:40.733Z,0.60
2022-11-05T14:50:22.390Z,0.60
2022-11-05T14:52:55.172Z,0.68
2022-11-05T14:55:40.300Z,0.70
2022-11-05T14:58:28.545Z,0.60
2022-11-05T15:00:56.474Z,0.50
2022-11-05T15:03:31.265Z,0.50
2022-11-05T15:06:21.309Z,0.68
2022-11-05T15:08:47.768Z,0.60
2022-11-05T15:11:32.902Z,0.70
2022-11-05T15:14:48.631Z,0.85
2022-11-05T15:17:30.735Z,0.88
2022-11-05T15:20:22.443Z,0.60
2022-11-05T15:22:59.040Z,1.10
2022-11-05T15:25:53.180Z,0.75
2022-11-05T15:28:26.674Z,0.80
2022-11-05T15:31:02.451Z,1.02
2022-11-05T15:36:28.014Z,0.90
2022-11-05T15:39:27.393Z,0.80
2022-11-05T15:41:43.592Z,0.77
2022-11-05T15:44:25.565Z,0.70
2022-11-05T15:47:13.305Z,0.70
2022-11-05T15:49:42.464Z,0.70
2022-11-05T15:52:14.581Z,0.85
2022-11-05T15:54:42.387Z,0.80
2022-11-05T15:57:24.400Z,0.80
2022-11-05T15:59:51.101Z,0.60
2022-11-05T16:02:23.747Z,0.70
2022-11-05T16:04:51.365Z,1.00
2022-11-05T16:07:20.370Z,0.82
2022-11-05T16:10:09.986Z,0.90
2022-11-05T16:12:39.190Z,0.77
2022-11-05T16:15:09.011Z,0.75
2022-11-05T16:17:53.557Z,0.90
2022-11-05T16:20:29.290Z,0.77
2022-11-05T16:23:04.775Z,0.90
2022-11-05T16:25:43.549Z,0.80
2022-11-05T16:28:28.372Z,0.82
2022-11-05T16:30:58.682Z,0.98
2022-11-05T16:33:31.493Z,0.77
2022-11-05T16:35:58.202Z,0.80
2022-11-05T16:38:25.524Z,0.88
2022-11-05T16:40:52.603Z,0.88
2022-11-05T16:43:26.388Z,0.77
2022-11-05T16:45:54.778Z,0.80
2022-11-05T16:48:21.806Z,0.77
2022-11-05T16:50:48.992Z,0.80
2022-11-05T16:53:15.937Z,0.68
2022-11-05T16:55:45.029Z,0.88
2022-11-05T16:58:21.332Z,0.80
2022-11-05T17:00:59.831Z,0.88
2022-11-05T17:03:31.742Z,0.68
2022-11-05T17:06:04.586Z,0.95
2022-11-05T17:08:33.962Z,0.90
2022-11-05T17:11:04.646Z,0.90
2022-11-05T17:14:09.304Z,0.75
2022-11-05T17:16:46.947Z,0.95
2022-11-05T17:19:21.659Z,0.75
2022-11-05T17:21:48.546Z,0.80
2022-11-05T17:24:15.077Z,0.90
2022-11-05T17:26:41.754Z,1.13
2022-11-05T17:29:08.819Z,0.95
2022-11-05T17:31:35.941Z,1.00
2022-11-05T17:34:02.530Z,0.98
2022-11-05T17:36:29.504Z,0.82
2022-11-05T17:38:56.504Z,1.10
2022-11-05T17:41:24.633Z,0.80
2022-11-05T17:43:56.448Z,0.90
2022-11-05T17:46:24.007Z,0.90
2022-11-05T17:48:51.134Z,0.98
2022-11-05T17:51:19.431Z,1.02
2022-11-05T17:53:47.295Z,0.80
2022-11-05T17:56:27.225Z,0.90
2022-11-05T17:58:55.507Z,1.02
2022-11-05T18:01:31.256Z,0.88
2022-11-05T18:06:30.694Z,1.00
2022-11-05T18:08:57.801Z,0.88
2022-11-05T18:11:24.790Z,0.85
2022-11-05T18:13:51.769Z,0.85
2022-11-05T18:16:18.760Z,1.00
2022-11-05T18:18:45.765Z,1.10
2022-11-05T18:21:12.553Z,0.98
2022-11-05T18:23:39.041Z,0.98
2022-11-05T18:26:12.999Z,1.13
2022-11-05T18:28:39.594Z,1.13
2022-11-05T18:31:17.697Z,1.05
2022-11-05T18:33:45.288Z,1.17
2022-11-05T18:36:22.939Z,0.90
2022-11-05T18:38:50.118Z,0.93
2022-11-05T18:41:17.715Z,1.13
2022-11-05T18:43:44.301Z,1.00
2022-11-05T18:46:29.366Z,0.95
2022-11-05T18:48:59.244Z,1.30
2022-11-05T18:51:26.773Z,1.27
2022-11-05T18:53:54.741Z,1.05
2022-11-05T18:56:21.734Z,1.02
2022-11-05T18:58:49.210Z,1.27
2022-11-05T19:01:19.182Z,1.10
2022-11-05T19:03:46.612Z,1.35
2022-11-05T19:06:13.480Z,1.00
2022-11-05T19:08:40.002Z,1.23
2022-11-05T19:11:12.964Z,1.17
2022-11-05T19:13:39.923Z,1.08
2022-11-05T19:16:12.167Z,0.75
2022-11-05T19:18:39.068Z,1.02
2022-11-05T19:21:18.319Z,0.98
2022-11-05T19:23:45.199Z,1.00
2022-11-05T19:26:18.060Z,1.30
2022-11-05T19:28:44.849Z,1.10
2022-11-05T19:31:26.643Z,1.00
2022-11-05T19:34:01.468Z,1.10
2022-11-05T19:36:28.696Z,1.20
2022-11-05T19:39:24.974Z,1.10
2022-11-05T19:41:51.890Z,1.10
2022-11-05T19:44:30.718Z,1.45
2022-11-05T19:46:57.824Z,1.30
2022-11-05T19:49:24.598Z,1.05
2022-11-05T19:51:51.476Z,1.08
2022-11-05T19:54:18.250Z,0.90
2022-11-05T19:56:45.746Z,0.95
2022-11-05T19:59:13.067Z,1.23
2022-11-05T20:01:39.846Z,1.10
2022-11-05T20:04:20.032Z,1.02
2022-11-05T20:06:46.665Z,1.00
2022-11-05T20:09:22.727Z,1.15
2022-11-05T20:11:56.913Z,1.20
2022-11-05T20:14:25.248Z,1.30
2022-11-05T20:16:52.344Z,1.20
2022-11-05T20:19:22.756Z,1.13
2022-11-05T20:21:50.396Z,1.33
2022-11-05T20:24:24.705Z,1.00
2022-11-05T20:26:53.662Z,0.90
2022-11-05T20:29:21.061Z,1.00
2022-11-05T20:31:48.255Z,1.45
2022-11-05T20:34:15.469Z,1.25
2022-11-05T20:36:42.595Z,1.23
2022-11-05T20:39:11.054Z,1.48
2022-11-05T20:41:38.208Z,1.30
2022-11-05T20:44:04.791Z,1.33
2022-11-05T20:46:32.863Z,1.23
2022-11-05T20:48:59.493Z,1.48
2022-11-05T20:51:26.525Z,1.35
2022-11-05T20:54:00.747Z,1.40
2022-11-05T20:56:31.121Z,1.33
2022-11-05T20:59:02.128Z,1.30
2022-11-05T21:01:33.457Z,1.52
2022-11-05T21:04:00.187Z,1.30
2022-11-05T21:06:26.860Z,1.35
2022-11-05T21:08:53.923Z,1.40
2022-11-05T21:11:20.795Z,1.33
2022-11-05T21:13:51.293Z,1.20
2022-11-05T21:16:20.139Z,1.30
2022-11-05T21:18:48.347Z,1.30
2022-11-05T21:21:18.752Z,1.52
2022-11-05T21:23:45.689Z,1.27
2022-11-05T21:26:14.073Z,1.30
2022-11-05T21:28:42.568Z,1.40
2022-11-05T21:31:10.183Z,1.33
2022-11-05T21:33:36.921Z,1.30
2022-11-05T21:36:12.574Z,1.33
2022-11-05T21:38:40.688Z,1.40
2022-11-05T21:41:08.995Z,1.23
2022-11-05T21:43:36.093Z,1.30
2022-11-05T21:46:04.607Z,1.13
2022-11-05T21:48:32.724Z,1.40
2022-11-05T21:51:17.940Z,1.35
2022-11-05T21:54:03.196Z,1.40
2022-11-05T21:56:48.769Z,1.10
2022-11-05T21:59:36.831Z,1.50
2022-11-05T22:02:05.025Z,1.30
2022-11-05T22:04:34.939Z,1.30
2022-11-05T22:07:02.032Z,1.00
2022-11-05T22:09:29.635Z,1.10
2022-11-05T22:11:57.089Z,1.42
2022-11-05T22:14:24.750Z,1.30
2022-11-05T22:17:00.556Z,1.30
2022-11-05T22:24:21.257Z,1.05
2022-11-05T22:26:48.664Z,1.10
2022-11-05T22:29:18.017Z,1.10
2022-11-05T22:31:47.792Z,1.40
2022-11-05T22:34:15.470Z,1.15
2022-11-05T22:36:42.542Z,1.13
2022-11-05T22:39:10.685Z,1.48
2022-11-05T22:41:38.108Z,1.40
2022-11-05T22:44:05.371Z,1.40
2022-11-05T22:46:32.544Z,1.42
2022-11-05T22:49:00.297Z,1.40
2022-11-05T22:51:29.681Z,1.45
2022-11-05T22:53:56.445Z,1.50
2022-11-05T22:56:26.064Z,1.90
2022-11-05T22:58:53.528Z,1.67
2022-11-05T23:01:22.113Z,1.52
2022-11-05T23:03:51.099Z,1.63
2022-11-05T23:06:44.635Z,1.80
2022-11-05T23:09:39.701Z,1.75
2022-11-05T23:12:09.315Z,1.50
2022-11-05T23:14:37.787Z,1.80
2022-11-05T23:17:23.203Z,1.60
2022-11-05T23:20:08.277Z,1.40
2022-11-05T23:22:53.422Z,1.73
2022-11-05T23:25:22.368Z,1.63
2022-11-05T23:27:51.870Z,1.48
2022-11-05T23:30:23.287Z,1.77
2022-11-05T23:32:51.031Z,1.70
2022-11-05T23:35:18.703Z,1.80
2022-11-05T23:38:03.549Z,1.73
2022-11-05T23:40:51.956Z,1.67
2022-11-05T23:43:37.182Z,1.58
2022-11-05T23:46:22.301Z,1.70
2022-11-05T23:48:49.578Z,1.77
2022-11-05T23:51:17.193Z,1.65
2022-11-05T23:53:44.235Z,2.20
2022-11-05T23:56:13.927Z,1.67
2022-11-05T23:58:42.212Z,1.83
